Terminal Aerodrome Forecast
Issued by NWS Austin/San Antonio, TX

Home | Current Version | Previous Version | Text Only | Print | Product List | Glossary On
Versions: 1 2 3 4 5 6 7 8 9 10 11 12 13 14 15 16 17 18 19 20 21 22 23 24
000
FTUS44 KEWX 231700
TAFAUS
TAF
KAUS 231720Z 2318/2424 19012KT P6SM FEW040 FEW250
     FM232100 15012KT P6SM FEW080 FEW250
     FM241100 19004KT P6SM BKN015
     FM241600 18010KT P6SM FEW040=

USA.gov is the U.S. government's official web portal to all federal, state and local government web resources and services.